createdAt,value
2019-02-18T00:02:10.769Z,20.53
2019-02-18T00:04:39.972Z,22.23
2019-02-18T00:07:14.547Z,19.20
2019-02-18T00:09:40.651Z,28.63
2019-02-18T00:12:10.281Z,19.87
2019-02-18T00:14:39.409Z,19.60
2019-02-18T00:17:08.543Z,21.67
2019-02-18T00:19:37.706Z,20.17
2019-02-18T00:22:06.889Z,19.37
2019-02-18T00:24:38.538Z,17.73
2019-02-18T00:27:07.646Z,19.07
2019-02-18T00:29:36.804Z,20.40
2019-02-18T00:32:05.898Z,20.40
2019-02-18T00:34:34.998Z,20.70
2019-02-18T00:37:04.317Z,19.93
2019-02-18T00:39:33.485Z,21.23
2019-02-18T00:42:02.608Z,23.20
2019-02-18T00:44:32.007Z,20.10
2019-02-18T00:47:01.416Z,19.73
2019-02-18T00:49:31.183Z,21.43
2019-02-18T00:52:01.435Z,25.70
2019-02-18T00:54:30.767Z,23.27
2019-02-18T00:56:59.888Z,21.83
2019-02-18T00:59:29.195Z,20.10
2019-02-18T01:01:58.344Z,17.30
2019-02-18T01:04:27.573Z,22.07
2019-02-18T01:06:56.728Z,18.67
2019-02-18T01:09:26.210Z,18.40
2019-02-18T01:11:55.343Z,21.90
2019-02-18T01:14:24.429Z,19.10
2019-02-18T01:16:53.680Z,18.33
2019-02-18T01:19:22.930Z,19.43
2019-02-18T01:21:52.240Z,20.87
2019-02-18T01:24:21.426Z,21.70
2019-02-18T01:26:50.735Z,19.17
2019-02-18T01:29:19.868Z,20.60
2019-02-18T01:31:50.499Z,16.90
2019-02-18T01:34:19.683Z,17.67
2019-02-18T01:36:48.815Z,18.37
2019-02-18T01:39:18.126Z,16.27
2019-02-18T01:41:48.619Z,17.13
2019-02-18T01:44:18.199Z,16.57
2019-02-18T01:46:47.632Z,14.77
2019-02-18T01:49:16.703Z,16.80
2019-02-18T01:51:45.762Z,14.90
2019-02-18T01:54:14.886Z,15.77
2019-02-18T01:56:44.290Z,14.20
2019-02-18T01:59:13.534Z,14.50
2019-02-18T02:01:42.638Z,12.37
2019-02-18T02:04:11.895Z,13.43
2019-02-18T02:06:41.035Z,12.20
2019-02-18T02:09:13.056Z,13.97
2019-02-18T02:11:42.781Z,17.30
2019-02-18T02:14:11.902Z,10.73
2019-02-18T02:16:41.061Z,12.30
2019-02-18T02:19:10.391Z,13.40
2019-02-18T02:21:39.586Z,15.00
2019-02-18T02:24:08.782Z,12.43
2019-02-18T02:26:40.101Z,17.90
2019-02-18T02:29:09.219Z,13.20
2019-02-18T02:31:38.340Z,15.90
2019-02-18T02:34:07.381Z,12.87
2019-02-18T02:36:36.604Z,10.07
2019-02-18T02:39:06.825Z,10.00
2019-02-18T02:41:36.062Z,12.40
2019-02-18T02:44:05.369Z,10.23
2019-02-18T02:46:34.419Z,9.43
2019-02-18T02:49:03.790Z,9.47
2019-02-18T02:51:32.907Z,9.60
2019-02-18T02:54:02.026Z,8.70
2019-02-18T02:56:31.254Z,11.73
2019-02-18T02:59:00.504Z,9.23
2019-02-18T03:01:30.404Z,10.93
2019-02-18T03:03:59.485Z,11.63
2019-02-18T03:06:28.585Z,11.27
2019-02-18T03:08:57.881Z,9.77
2019-02-18T03:11:27.236Z,8.83
2019-02-18T03:13:56.773Z,10.03
2019-02-18T03:16:27.481Z,10.57
2019-02-18T03:18:56.761Z,9.37
2019-02-18T03:21:25.821Z,11.07
2019-02-18T03:23:55.085Z,9.43
2019-02-18T03:26:24.183Z,11.23
2019-02-18T03:29:34.138Z,9.20
2019-02-18T03:32:03.337Z,8.47
2019-02-18T03:34:39.430Z,9.67
2019-02-18T03:37:08.612Z,7.93
2019-02-18T03:39:37.722Z,8.83
2019-02-18T03:42:07.061Z,8.10
2019-02-18T03:44:36.272Z,12.90
2019-02-18T03:47:05.389Z,7.77
2019-02-18T03:49:34.650Z,9.00
2019-02-18T03:52:04.169Z,9.03
2019-02-18T03:54:33.274Z,10.63
2019-02-18T03:57:02.368Z,11.70
2019-02-18T03:59:31.633Z,10.30
2019-02-18T04:02:00.839Z,9.70
2019-02-18T04:04:29.983Z,11.23
2019-02-18T04:06:59.337Z,11.90
2019-02-18T04:09:28.479Z,14.47
2019-02-18T04:11:57.906Z,13.20
2019-02-18T04:14:27.032Z,10.50
2019-02-18T04:16:56.248Z,14.60
2019-02-18T04:19:25.379Z,10.60
2019-02-18T04:21:54.607Z,9.30
2019-02-18T04:24:23.747Z,9.13
2019-02-18T04:26:53.234Z,9.53
2019-02-18T04:29:22.462Z,12.80
2019-02-18T04:31:51.505Z,8.20
2019-02-18T04:34:20.713Z,10.13
2019-02-18T04:36:50.072Z,9.07
2019-02-18T04:39:19.298Z,12.90
2019-02-18T04:41:48.323Z,8.70
2019-02-18T04:44:17.579Z,8.63
2019-02-18T04:46:47.219Z,8.57
2019-02-18T04:49:16.268Z,8.93
2019-02-18T04:51:45.557Z,10.00
2019-02-18T04:54:14.635Z,7.93
2019-02-18T04:56:43.814Z,8.07
2019-02-18T04:59:13.031Z,7.30
2019-02-18T05:01:42.151Z,9.30
2019-02-18T05:04:14.084Z,8.53
2019-02-18T05:06:42.586Z,8.60
2019-02-18T05:09:11.716Z,11.97
2019-02-18T05:11:41.196Z,10.00
2019-02-18T05:14:10.309Z,9.70
2019-02-18T05:16:39.421Z,10.50
2019-02-18T05:19:08.494Z,13.20
2019-02-18T05:21:37.832Z,8.47
2019-02-18T05:24:07.131Z,7.77
2019-02-18T05:26:36.362Z,10.67
2019-02-18T05:29:05.483Z,9.60
2019-02-18T05:31:34.654Z,10.93
2019-02-18T05:34:04.090Z,8.70
2019-02-18T05:36:35.098Z,8.63
2019-02-18T05:39:16.999Z,8.33
2019-02-18T05:41:36.491Z,11.23
2019-02-18T05:44:05.595Z,10.80
2019-02-18T05:46:35.069Z,9.10
2019-02-18T05:49:04.190Z,10.43
2019-02-18T05:51:33.417Z,9.73
2019-02-18T05:54:02.704Z,9.53
2019-02-18T05:56:31.742Z,9.13
2019-02-18T05:59:01.135Z,13.03
2019-02-18T06:01:30.279Z,13.50
2019-02-18T06:04:00.242Z,10.63
2019-02-18T06:06:29.856Z,10.50
2019-02-18T06:08:59.020Z,9.93
2019-02-18T06:11:28.289Z,9.93
2019-02-18T06:13:57.428Z,10.17
2019-02-18T06:16:26.556Z,10.30
2019-02-18T06:18:55.779Z,13.07
2019-02-18T06:21:25.031Z,9.80
2019-02-18T06:23:54.246Z,9.53
2019-02-18T06:26:23.455Z,13.33
2019-02-18T06:28:52.608Z,12.30
2019-02-18T06:31:22.047Z,14.40
2019-02-18T06:33:51.329Z,10.10
2019-02-18T06:36:20.547Z,8.03
2019-02-18T06:38:49.644Z,8.60
2019-02-18T06:41:18.685Z,8.43
2019-02-18T06:43:47.924Z,8.93
2019-02-18T06:46:32.649Z,9.70
2019-02-18T06:49:11.764Z,10.80
2019-02-18T06:51:40.870Z,9.97
2019-02-18T06:54:10.332Z,9.93
2019-02-18T06:56:50.992Z,13.07
2019-02-18T06:59:25.579Z,8.43
2019-02-18T07:02:02.493Z,8.07
2019-02-18T07:04:43.326Z,8.80
2019-02-18T07:07:37.609Z,11.10
2019-02-18T07:10:21.632Z,10.10
2019-02-18T07:12:52.713Z,11.00
2019-02-18T07:15:22.098Z,9.40
2019-02-18T07:17:51.315Z,11.87
2019-02-18T07:20:20.482Z,10.40
2019-02-18T07:22:49.801Z,12.80
2019-02-18T07:25:18.889Z,10.47
2019-02-18T07:27:48.071Z,8.73
2019-02-18T07:30:17.690Z,8.30
2019-02-18T07:32:46.770Z,8.80
2019-02-18T07:35:15.875Z,8.40
2019-02-18T07:37:45.229Z,10.13
2019-02-18T07:40:14.432Z,12.77
2019-02-18T07:42:43.783Z,11.77
2019-02-18T07:45:13.189Z,12.40
2019-02-18T07:47:42.895Z,13.43
2019-02-18T07:50:20.359Z,13.40
2019-02-18T07:52:43.330Z,14.77
2019-02-18T07:55:12.493Z,25.97
2019-02-18T07:57:42.034Z,30.37
2019-02-18T08:00:12.861Z,28.00
2019-02-18T08:02:42.219Z,22.90
2019-02-18T08:05:11.417Z,19.50
2019-02-18T08:07:44.351Z,14.57
2019-02-18T08:10:13.807Z,66.30
2019-02-18T08:12:42.945Z,61.03
2019-02-18T08:15:12.276Z,36.47
2019-02-18T08:17:41.418Z,39.27
2019-02-18T08:20:12.575Z,23.90
2019-02-18T08:22:41.809Z,20.77
2019-02-18T08:25:10.890Z,16.93
2019-02-18T08:27:40.165Z,10.23
2019-02-18T08:30:11.205Z,10.67
2019-02-18T08:32:40.604Z,11.47
2019-02-18T08:35:09.819Z,10.43
2019-02-18T08:37:39.033Z,8.80
2019-02-18T08:40:08.623Z,9.27
2019-02-18T08:42:37.730Z,7.60
2019-02-18T08:45:08.993Z,9.13
2019-02-18T08:47:38.280Z,8.60
2019-02-18T08:50:09.308Z,10.50
2019-02-18T08:52:38.357Z,9.40
2019-02-18T08:55:09.478Z,9.27
2019-02-18T08:57:38.571Z,8.67
2019-02-18T09:00:10.686Z,8.80
2019-02-18T09:02:40.261Z,9.70
2019-02-18T09:05:09.824Z,9.30
2019-02-18T09:07:38.911Z,8.87
2019-02-18T09:10:09.988Z,7.27
2019-02-18T09:12:39.296Z,9.43
2019-02-18T09:15:09.275Z,13.17
2019-02-18T09:17:38.695Z,10.07
2019-02-18T09:20:08.785Z,11.43
2019-02-18T09:22:53.140Z,12.33
2019-02-18T09:25:25.361Z,8.90
2019-02-18T09:27:54.891Z,19.73
2019-02-18T09:30:27.355Z,8.27
2019-02-18T09:32:56.852Z,9.53
2019-02-18T09:35:26.405Z,8.80
2019-02-18T09:37:55.506Z,6.33
2019-02-18T09:40:24.707Z,11.47
2019-02-18T09:42:53.934Z,7.63
2019-02-18T09:45:23.062Z,14.60
2019-02-18T09:47:54.346Z,5.23
2019-02-18T09:50:23.493Z,6.37
2019-02-18T09:52:52.699Z,11.03
2019-02-18T09:55:22.099Z,7.20
2019-02-18T09:57:54.198Z,6.97
2019-02-18T10:00:23.468Z,10.03
2019-02-18T10:02:52.629Z,8.00
2019-02-18T10:05:21.742Z,7.93
2019-02-18T10:07:50.960Z,7.60
2019-02-18T10:10:20.363Z,6.63
2019-02-18T10:12:49.456Z,8.80
2019-02-18T10:15:18.675Z,8.00
2019-02-18T10:17:47.905Z,7.50
2019-02-18T10:20:17.160Z,9.30
2019-02-18T10:22:46.509Z,7.70
2019-02-18T10:25:15.607Z,7.47
2019-02-18T10:27:44.802Z,6.47
2019-02-18T10:30:14.254Z,8.70
2019-02-18T10:32:43.446Z,10.20
2019-02-18T10:35:12.760Z,8.40
2019-02-18T10:37:41.869Z,8.90
2019-02-18T10:40:10.936Z,7.83
2019-02-18T10:42:45.933Z,8.87
2019-02-18T10:45:15.295Z,7.50
2019-02-18T10:47:44.427Z,7.60
2019-02-18T10:50:14.175Z,8.83
2019-02-18T10:52:43.315Z,7.37
2019-02-18T10:55:15.003Z,8.30
2019-02-18T10:57:44.394Z,10.97
2019-02-18T11:00:14.076Z,8.60
2019-02-18T11:02:43.221Z,11.47
2019-02-18T11:05:14.643Z,14.40
2019-02-18T11:07:44.138Z,8.87
2019-02-18T11:10:15.112Z,9.37
2019-02-18T11:12:44.559Z,9.70
2019-02-18T11:15:14.101Z,9.50
2019-02-18T11:17:43.746Z,9.53
2019-02-18T11:20:13.029Z,10.10
2019-02-18T11:22:42.415Z,9.37
2019-02-18T11:25:11.697Z,9.43
2019-02-18T11:27:40.738Z,9.10
2019-02-18T11:30:12.848Z,9.20
2019-02-18T11:32:41.942Z,12.23
2019-02-18T11:35:11.331Z,10.27
2019-02-18T11:37:40.701Z,8.73
2019-02-18T11:40:12.268Z,11.50
2019-02-18T11:42:41.383Z,12.63
2019-02-18T11:45:12.995Z,7.00
2019-02-18T11:47:42.305Z,8.00
2019-02-18T11:50:12.515Z,7.87
2019-02-18T11:52:41.749Z,9.10
2019-02-18T11:55:11.078Z,8.73
2019-02-18T11:57:40.547Z,9.73
2019-02-18T12:00:11.065Z,7.70
2019-02-18T12:02:40.177Z,6.87
2019-02-18T12:05:10.356Z,11.60
2019-02-18T12:07:39.513Z,8.13
2019-02-18T12:10:09.601Z,7.80
2019-02-18T12:12:38.972Z,10.70
2019-02-18T12:15:09.674Z,7.70
2019-02-18T12:17:38.793Z,7.13
2019-02-18T12:20:10.254Z,8.50
2019-02-18T12:22:40.107Z,7.87
2019-02-18T12:25:09.355Z,8.27
2019-02-18T12:27:38.634Z,6.80
2019-02-18T12:30:09.103Z,7.93
2019-02-18T12:32:38.423Z,7.77
2019-02-18T12:35:07.716Z,15.10
2019-02-18T12:37:36.825Z,12.17
2019-02-18T12:40:06.704Z,7.63
2019-02-18T12:42:36.109Z,7.10
2019-02-18T12:45:09.971Z,8.50
2019-02-18T12:47:39.250Z,7.80
2019-02-18T12:50:08.464Z,7.00
2019-02-18T12:52:37.613Z,7.20
2019-02-18T12:55:07.123Z,9.17
2019-02-18T12:57:36.420Z,6.53
2019-02-18T13:00:07.685Z,9.73
2019-02-18T13:02:44.454Z,9.30
2019-02-18T13:05:09.495Z,9.30
2019-02-18T13:07:38.926Z,6.70
2019-02-18T13:10:08.220Z,7.53
2019-02-18T13:12:37.518Z,9.60
2019-02-18T13:15:08.879Z,5.37
2019-02-18T13:17:38.101Z,5.70
2019-02-18T13:20:08.804Z,6.10
2019-02-18T13:22:38.115Z,6.70
2019-02-18T13:25:07.651Z,6.13
2019-02-18T13:27:36.834Z,5.37
2019-02-18T13:30:10.032Z,7.60
2019-02-18T13:32:39.134Z,7.70
2019-02-18T13:35:08.396Z,5.33
2019-02-18T13:37:37.575Z,5.03
2019-02-18T13:40:06.938Z,5.57
2019-02-18T13:42:36.043Z,6.33
2019-02-18T13:45:06.426Z,5.30
2019-02-18T13:47:35.546Z,5.40
2019-02-18T13:50:05.518Z,5.40
2019-02-18T13:52:34.577Z,9.10
2019-02-18T13:55:04.185Z,5.80
2019-02-18T13:57:33.477Z,5.97
2019-02-18T14:00:04.825Z,5.40
2019-02-18T14:02:34.333Z,7.70
2019-02-18T14:05:06.451Z,5.60
2019-02-18T14:07:36.330Z,5.80
2019-02-18T14:10:09.120Z,6.80
2019-02-18T14:12:38.474Z,5.03
2019-02-18T14:15:08.354Z,5.73
2019-02-18T14:17:37.494Z,5.07
2019-02-18T14:20:10.902Z,6.00
2019-02-18T14:22:40.085Z,6.97
2019-02-18T14:25:09.939Z,7.07
2019-02-18T14:27:39.434Z,6.63
2019-02-18T14:30:10.561Z,5.33
2019-02-18T14:32:39.779Z,6.03
2019-02-18T14:35:08.968Z,5.80
2019-02-18T14:37:38.095Z,7.73
2019-02-18T14:40:09.450Z,7.07
2019-02-18T14:42:38.526Z,4.90
2019-02-18T14:45:08.128Z,6.20
2019-02-18T14:47:37.195Z,5.17
2019-02-18T14:50:06.491Z,6.30
2019-02-18T14:52:35.546Z,6.27
2019-02-18T14:55:05.791Z,5.80
2019-02-18T14:57:34.866Z,6.13
2019-02-18T15:00:04.301Z,6.20
2019-02-18T15:02:33.352Z,6.00
2019-02-18T15:05:02.605Z,6.97
2019-02-18T15:07:31.907Z,6.13
2019-02-18T15:10:01.275Z,7.70
2019-02-18T15:12:33.022Z,6.80
2019-02-18T15:15:01.333Z,7.20
2019-02-18T15:17:30.562Z,7.60
2019-02-18T15:20:00.023Z,9.77
2019-02-18T15:22:29.162Z,6.33
2019-02-18T15:24:58.623Z,7.83
2019-02-18T15:27:27.975Z,12.60
2019-02-18T15:29:57.020Z,9.00
2019-02-18T15:32:26.068Z,10.73
2019-02-18T15:34:55.091Z,7.27
2019-02-18T15:37:24.303Z,6.93
2019-02-18T15:39:53.839Z,8.97
2019-02-18T15:42:22.843Z,6.10
2019-02-18T15:44:51.933Z,7.13
2019-02-18T15:47:21.064Z,7.00
2019-02-18T15:49:50.730Z,6.80
2019-02-18T15:52:19.781Z,8.20
2019-02-18T15:54:49.146Z,8.73
2019-02-18T15:57:18.194Z,11.17
2019-02-18T15:59:47.344Z,10.70
2019-02-18T16:02:16.498Z,13.03
2019-02-18T16:04:47.596Z,11.47
2019-02-18T16:07:16.931Z,11.40
2019-02-18T16:09:46.207Z,8.23
2019-02-18T16:12:15.827Z,8.40
2019-02-18T16:14:44.977Z,9.43
2019-02-18T16:17:14.084Z,10.73
2019-02-18T16:19:43.249Z,10.07
2019-02-18T16:22:12.426Z,7.93
2019-02-18T16:24:41.931Z,9.00
2019-02-18T16:27:10.994Z,9.80
2019-02-18T16:29:40.081Z,8.13
2019-02-18T16:32:09.227Z,11.43
2019-02-18T16:34:38.406Z,9.30
2019-02-18T16:37:08.000Z,10.23
2019-02-18T16:39:37.178Z,8.97
2019-02-18T16:42:07.916Z,9.03
2019-02-18T16:44:37.253Z,9.53
2019-02-18T16:47:06.790Z,8.50
2019-02-18T16:49:36.602Z,6.73
2019-02-18T16:52:06.682Z,9.50
2019-02-18T16:54:36.203Z,9.53
2019-02-18T16:57:06.482Z,7.43
2019-02-18T16:59:35.577Z,13.57
2019-02-18T17:02:04.997Z,10.37
2019-02-18T17:04:34.262Z,11.90
2019-02-18T17:07:10.081Z,9.83
2019-02-18T17:09:39.287Z,10.03
2019-02-18T17:12:08.515Z,13.37
2019-02-18T17:14:37.633Z,11.77
2019-02-18T17:17:06.907Z,9.83
2019-02-18T17:19:36.249Z,14.70
2019-02-18T17:22:05.550Z,13.80
2019-02-18T17:24:35.005Z,24.20
2019-02-18T17:27:04.204Z,25.97
2019-02-18T17:29:33.515Z,21.20
2019-02-18T17:32:02.680Z,24.23
2019-02-18T17:34:31.780Z,24.27
2019-02-18T17:37:01.223Z,26.33
2019-02-18T17:39:30.461Z,30.83
2019-02-18T17:41:59.584Z,30.23
2019-02-18T17:44:29.162Z,26.93
2019-02-18T17:46:58.535Z,30.73
2019-02-18T17:49:27.732Z,26.77
2019-02-18T17:51:58.778Z,29.90
2019-02-18T17:54:28.105Z,29.63
2019-02-18T17:56:57.366Z,27.03
2019-02-18T17:59:26.591Z,20.10
2019-02-18T18:01:55.711Z,16.70
2019-02-18T18:04:25.475Z,21.60
2019-02-18T18:06:55.105Z,14.80
2019-02-18T18:09:25.431Z,13.10
2019-02-18T18:11:54.723Z,17.63
2019-02-18T18:14:23.856Z,21.73
2019-02-18T18:16:53.224Z,17.73
2019-02-18T18:19:22.388Z,16.47
2019-02-18T18:21:51.448Z,17.40
2019-02-18T18:24:20.841Z,20.03
2019-02-18T18:26:50.420Z,18.37
2019-02-18T18:29:19.718Z,21.63
2019-02-18T18:31:48.856Z,25.80
2019-02-18T18:34:17.989Z,29.87
2019-02-18T18:36:47.380Z,28.03
2019-02-18T18:39:18.193Z,39.00
2019-02-18T18:41:47.309Z,25.30
2019-02-18T18:44:16.620Z,21.50
2019-02-18T18:46:48.924Z,21.67
2019-02-18T18:49:21.488Z,21.57
2019-02-18T18:51:51.400Z,21.10
2019-02-18T18:54:20.537Z,27.93
2019-02-18T18:56:49.765Z,21.63
2019-02-18T18:59:18.872Z,20.53
2019-02-18T19:01:53.744Z,21.70
2019-02-18T19:04:22.987Z,20.63
2019-02-18T19:06:52.088Z,34.30
2019-02-18T19:09:22.025Z,36.10
2019-02-18T19:11:51.127Z,40.60
2019-02-18T19:14:20.203Z,35.10
2019-02-18T19:16:49.959Z,30.40
2019-02-18T19:19:19.501Z,32.73
2019-02-18T19:21:50.340Z,31.47
2019-02-18T19:24:19.692Z,31.37
2019-02-18T19:26:49.302Z,31.77
2019-02-18T19:29:18.427Z,32.77
2019-02-18T19:31:47.527Z,30.70
2019-02-18T19:34:16.676Z,30.07
2019-02-18T19:36:45.915Z,29.07
2019-02-18T19:39:15.058Z,27.03
2019-02-18T19:41:44.212Z,27.20
2019-02-18T19:44:13.782Z,35.90
2019-02-18T19:46:44.030Z,28.73
2019-02-18T19:49:13.312Z,27.67
2019-02-18T19:51:42.502Z,30.87
2019-02-18T19:54:12.118Z,29.47
2019-02-18T19:56:41.517Z,23.27
2019-02-18T19:59:11.038Z,27.90
2019-02-18T20:01:40.170Z,29.47
2019-02-18T20:04:09.439Z,36.97
2019-02-18T20:06:38.898Z,30.27
2019-02-18T20:09:15.782Z,26.53
2019-02-18T20:11:45.483Z,21.97
2019-02-18T20:14:14.844Z,22.43
2019-02-18T20:16:44.086Z,23.00
2019-02-18T20:19:13.492Z,25.80
2019-02-18T20:21:43.388Z,26.93
2019-02-18T20:24:12.673Z,24.30
2019-02-18T20:26:42.317Z,26.30
2019-02-18T20:29:11.664Z,26.40
2019-02-18T20:31:40.797Z,22.30
2019-02-18T20:34:12.702Z,23.60
2019-02-18T20:36:41.786Z,21.97
2019-02-18T20:39:11.950Z,26.27
2019-02-18T20:41:41.413Z,30.20
2019-02-18T20:44:11.800Z,25.83
2019-02-18T20:46:42.045Z,29.23
2019-02-18T20:49:11.165Z,29.27
2019-02-18T20:51:40.551Z,29.90
2019-02-18T20:54:10.091Z,45.30
2019-02-18T20:56:39.579Z,33.40
2019-02-18T20:59:08.754Z,36.63
2019-02-18T21:01:39.327Z,28.77
2019-02-18T21:04:08.462Z,32.80
2019-02-18T21:06:37.628Z,35.53
2019-02-18T21:09:07.520Z,32.10
2019-02-18T21:11:36.650Z,31.13
2019-02-18T21:14:06.054Z,33.83
2019-02-18T21:16:35.175Z,34.27
2019-02-18T21:19:04.302Z,32.50
2019-02-18T21:21:33.535Z,28.83
2019-02-18T21:24:02.806Z,24.93
2019-02-18T21:26:31.954Z,32.67
2019-02-18T21:29:01.226Z,24.97
2019-02-18T21:31:30.476Z,32.87
2019-02-18T21:33:59.722Z,28.37
2019-02-18T21:36:28.849Z,27.70
2019-02-18T21:38:58.193Z,28.93
2019-02-18T21:41:27.386Z,25.50
2019-02-18T21:43:56.448Z,23.70
2019-02-18T21:46:25.791Z,29.20
2019-02-18T21:48:54.995Z,28.63
2019-02-18T21:51:24.395Z,20.40
2019-02-18T21:53:53.510Z,22.70
2019-02-18T21:56:24.849Z,22.90
2019-02-18T21:58:54.058Z,29.70
2019-02-18T22:01:23.244Z,34.63
2019-02-18T22:03:55.275Z,30.23
2019-02-18T22:06:25.622Z,56.40
2019-02-18T22:09:30.478Z,39.40
2019-02-18T22:12:04.226Z,31.10
2019-02-18T22:14:36.660Z,30.50
2019-02-18T22:17:08.106Z,36.57
2019-02-18T22:19:37.914Z,29.63
2019-02-18T22:22:09.914Z,27.50
2019-02-18T22:24:39.173Z,25.77
2019-02-18T22:27:23.620Z,31.60
2019-02-18T22:29:59.433Z,30.60
2019-02-18T22:32:29.082Z,28.87
2019-02-18T22:35:22.345Z,33.27
2019-02-18T22:38:31.174Z,28.50
2019-02-18T22:41:09.937Z,30.07
2019-02-18T22:43:52.394Z,25.07
2019-02-18T22:46:23.612Z,28.20
2019-02-18T22:48:53.216Z,26.33
2019-02-18T22:51:23.026Z,39.00
2019-02-18T22:53:52.359Z,28.40
2019-02-18T22:56:23.526Z,29.50
2019-02-18T22:58:52.652Z,27.10
2019-02-18T23:01:23.241Z,26.93
2019-02-18T23:03:52.344Z,27.07
2019-02-18T23:06:21.849Z,24.17
2019-02-18T23:08:50.977Z,28.63
2019-02-18T23:11:20.180Z,25.17
2019-02-18T23:13:50.028Z,27.80
2019-02-18T23:16:19.308Z,30.87
2019-02-18T23:18:48.359Z,26.87
2019-02-18T23:21:17.766Z,25.20
2019-02-18T23:23:46.930Z,28.47
2019-02-18T23:26:16.110Z,26.30
2019-02-18T23:28:45.322Z,33.00
2019-02-18T23:31:14.442Z,29.63
2019-02-18T23:33:43.883Z,35.40
2019-02-18T23:36:13.029Z,31.90
2019-02-18T23:38:44.661Z,27.73
2019-02-18T23:41:13.770Z,26.83
2019-02-18T23:43:42.853Z,26.53
2019-02-18T23:46:11.932Z,25.00
2019-02-18T23:48:45.284Z,26.23
2019-02-18T23:51:50.650Z,25.97
2019-02-18T23:55:16.314Z,30.70
2019-02-18T23:57:56.945Z,28.63
